Anchorage, AK (99517)

8:06 PM AKDT on September 03, 2015 (GMT -0800)
Turnagain | | Change Station
CLOSE
Current Station
Personal Weather Station
Location: Anchorage, AK
Elevation: 52 ft
Nearby Weather Stations

Elev 52 ft 61.19 °N, 149.93 °W | Updated 1 minute ago

Light Rain
Light Rain
52.2 °F
Feels Like 52.2 °F
N
-
Wind Variable Wind from North

Today
High -- | Low -- °F
--% Chance of Precip.
Yesterday
High -- | Low -- °F
Precip. -- in
6:56 AM 9:00 PM
Waning Gibbous, 64% visible
Pressure 29.86 in
Visibility 10.0 miles
Clouds Overcast 5500 ft
Dew Point 52 °F
Humidity 100%
Rainfall Not available.
Snow Depth Not available.
UV 0 out of 12
Pollen Not available.
Air Quality Not available.
Flu Activity Not available.
METAR PALH 040353Z 35004KT 10SM -RA OVC055 11/09 A2986 RMK AO2 SLP112 P0001 T01110094
Pressure 29.86 in
Visibility 10.0 miles
Clouds Overcast 5500 ft
Dew Point 52 °F
Humidity 100%
Rainfall Not available.
Snow Depth Not available.
UV 0 out of 12
Pollen Not available.
Air Quality Not available.
Flu Activity Not available.
METAR PALH 040353Z 35004KT 10SM -RA OVC055 11/09 A2986 RMK AO2 SLP112 P0001 T01110094

10-Day Weather Forecast

×

Almanac

Astronomy

Sep. 03, 2015 Rise Set
Actual Time
Civil Twilight
Nautical Twilight
Astronomical Twilight
Moon
Length of Visible Light
Length of Day
Tomorrow will be .
, % of the Moon is Illuminated

Today's Extremes

State Highs State Lows

Community

WunderPhotos

Upload Photos

1,852,125 photos uploaded!

WunderBlogs® & News

Nearby

Air Quality

  Air Quality AQ Index Pollutant
Not available.

Snow Depth

Station Depth Elevation

Earthquake Activity

City Distance Mag. Time & Date
Minimum magnitude displayed is 2.5.

Coastal Water Temperatures

Place Temperature

Stations

Nearby Weather Stations

Station Location Temp. Windchill Dew Point Humidity Wind Precip. Elev Updated Type